Time;durP1;ratioP1;P1;durP2;ratioP2;P2;SDS_P1;SDS_P2;PMS_P1;PMS_P2;Temp;Humidity;BMP_temperature;BMP_pressure;BME280_temperature;BME280_humidity;BME280_pressure;Samples;Min_cycle;Max_cycle;Signal;HPM_P1;HPM_P2
2023/06/30 00:00:38;;;;;;;7.28;4.50;;;;;;;;;;4890435;29;20092;-82
2023/06/30 00:03:04;;;;;;;7.20;4.60;;;;;;;;;;4890852;29;20446;-82
2023/06/30 00:05:29;;;;;;;6.53;4.80;;;;;;;;;;4880862;29;20481;-82
2023/06/30 00:07:58;;;;;;;7.25;4.75;;;;;;;;;;4885145;29;20127;-82
2023/06/30 00:10:24;;;;;;;6.78;4.97;;;;;;;;;;4905847;29;20214;-81
2023/06/30 00:12:52;;;;;;;6.90;5.10;;;;;;;;;;4888557;29;20476;-81
2023/06/30 00:15:17;;;;;;;9.20;5.63;;;;;;;;;;4890211;29;20429;-82
2023/06/30 00:17:43;;;;;;;9.60;5.47;;;;;;;;;;4888811;29;20154;-81
2023/06/30 00:20:09;;;;;;;9.82;5.82;;;;;;;;;;4889150;29;20386;-81
2023/06/30 00:22:37;;;;;;;8.38;6.20;;;;;;;;;;4889358;29;20068;-82
2023/06/30 00:25:03;;;;;;;8.70;5.95;;;;;;;;;;4890501;29;20025;-82
2023/06/30 00:27:28;;;;;;;8.65;6.13;;;;;;;;;;4889216;29;20815;-82
2023/06/30 00:29:55;;;;;;;9.35;6.55;;;;;;;;;;4889687;29;20056;-82
2023/06/30 00:32:20;;;;;;;10.38;6.70;;;;;;;;;;4888498;29;20457;-82
2023/06/30 00:34:45;;;;;;;9.55;6.88;;;;;;;;;;4890256;29;20037;-82
2023/06/30 00:37:11;;;;;;;9.68;7.18;;;;;;;;;;4881083;29;20037;-82
2023/06/30 00:39:37;;;;;;;11.63;7.68;;;;;;;;;;4897999;29;20044;-83
2023/06/30 00:42:02;;;;;;;13.52;8.02;;;;;;;;;;4889153;29;20441;-82
2023/06/30 00:44:28;;;;;;;11.35;8.02;;;;;;;;;;4906549;29;20032;-82
2023/06/30 00:47:00;;;;;;;11.52;7.75;;;;;;;;;;4867106;29;20048;-82
2023/06/30 00:49:26;;;;;;;11.82;8.27;;;;;;;;;;4897254;29;20048;-82
2023/06/30 00:51:52;;;;;;;13.63;8.55;;;;;;;;;;4895598;29;20400;-83
2023/06/30 00:54:17;;;;;;;11.98;8.35;;;;;;;;;;4895683;29;20032;-83
2023/06/30 00:56:43;;;;;;;12.27;8.85;;;;;;;;;;4895508;29;20040;-82
2023/06/30 00:59:08;;;;;;;13.63;9.32;;;;;;;;;;4881781;29;20075;-83
2023/06/30 01:01:36;;;;;;;13.90;9.38;;;;;;;;;;4884654;29;20044;-82
2023/06/30 01:04:17;;;;;;;16.08;9.65;;;;;;;;;;4913663;29;20036;-83
2023/06/30 01:07:00;;;;;;;15.13;9.95;;;;;;;;;;4894594;29;20040;-82
2023/06/30 01:09:27;;;;;;;14.38;10.05;;;;;;;;;;4912512;29;20037;-82
2023/06/30 01:11:53;;;;;;;15.00;10.07;;;;;;;;;;4902056;29;20052;-82
2023/06/30 01:14:20;;;;;;;15.32;10.43;;;;;;;;;;4911337;29;20032;-82
2023/06/30 01:16:46;;;;;;;14.82;10.32;;;;;;;;;;4910927;29;20040;-82
2023/06/30 01:19:38;;;;;;;14.63;10.18;;;;;;;;;;4903722;29;20039;-82
2023/06/30 01:22:13;;;;;;;18.35;11.18;;;;;;;;;;4899690;29;20107;-82
2023/06/30 01:24:39;;;;;;;15.32;11.55;;;;;;;;;;4911880;29;20484;-82
2023/06/30 01:27:05;;;;;;;17.45;10.73;;;;;;;;;;4879353;29;20504;-82
2023/06/30 01:29:30;;;;;;;17.85;11.50;;;;;;;;;;4880890;29;20044;-82
2023/06/30 01:32:01;;;;;;;16.83;10.98;;;;;;;;;;4868917;29;20105;-81
2023/06/30 01:34:26;;;;;;;15.98;11.10;;;;;;;;;;4897406;29;20508;-82
2023/06/30 01:36:52;;;;;;;17.02;11.50;;;;;;;;;;4909925;29;20055;-82
2023/06/30 01:39:17;;;;;;;17.33;11.50;;;;;;;;;;4896116;29;20095;-81
2023/06/30 01:41:44;;;;;;;16.52;11.25;;;;;;;;;;4895035;29;20070;-82
2023/06/30 01:44:09;;;;;;;19.38;11.93;;;;;;;;;;4894916;29;20048;-81
2023/06/30 01:46:35;;;;;;;18.58;12.27;;;;;;;;;;4910023;29;20175;-81
2023/06/30 01:49:00;;;;;;;19.20;11.43;;;;;;;;;;4896127;29;20104;-83
2023/06/30 01:51:25;;;;;;;18.05;12.52;;;;;;;;;;4894840;29;20139;-82
2023/06/30 01:53:51;;;;;;;15.10;10.98;;;;;;;;;;4880836;29;20051;-82
2023/06/30 01:56:16;;;;;;;17.27;11.48;;;;;;;;;;4894024;29;20040;-82
2023/06/30 01:58:42;;;;;;;17.63;12.07;;;;;;;;;;4894094;29;20067;-82
2023/06/30 02:01:10;;;;;;;16.20;11.27;;;;;;;;;;4885011;29;20036;-82
2023/06/30 02:03:36;;;;;;;18.80;11.35;;;;;;;;;;4910341;29;20136;-82
2023/06/30 02:06:02;;;;;;;17.55;11.40;;;;;;;;;;4911162;29;20032;-82
2023/06/30 02:08:28;;;;;;;20.10;11.85;;;;;;;;;;4885765;29;20044;-82
2023/06/30 02:10:53;;;;;;;19.33;12.20;;;;;;;;;;4894749;29;20070;-82
2023/06/30 02:13:19;;;;;;;17.80;12.35;;;;;;;;;;4881092;29;20046;-82
2023/06/30 02:15:44;;;;;;;19.60;12.55;;;;;;;;;;4895130;29;20389;-83
2023/06/30 02:18:10;;;;;;;17.33;11.77;;;;;;;;;;4893662;29;20036;-82
2023/06/30 02:20:36;;;;;;;20.45;11.82;;;;;;;;;;4878999;29;20028;-82
2023/06/30 02:23:01;;;;;;;16.60;11.38;;;;;;;;;;4885708;29;20509;-83
2023/06/30 02:25:26;;;;;;;18.13;12.35;;;;;;;;;;4894342;29;20044;-82
2023/06/30 02:27:52;;;;;;;18.15;12.20;;;;;;;;;;4910171;29;20139;-82
2023/06/30 02:30:23;;;;;;;17.02;11.23;;;;;;;;;;4885095;29;20036;-83
2023/06/30 02:32:49;;;;;;;18.45;12.00;;;;;;;;;;4893552;29;20130;-83
2023/06/30 02:35:14;;;;;;;17.63;12.57;;;;;;;;;;4893762;29;20130;-82
2023/06/30 02:37:40;;;;;;;19.38;13.07;;;;;;;;;;4883183;29;20043;-82
2023/06/30 02:40:06;;;;;;;20.08;12.98;;;;;;;;;;4894786;29;20468;-81
2023/06/30 02:42:34;;;;;;;21.57;13.50;;;;;;;;;;4908952;29;20043;-81
2023/06/30 02:45:00;;;;;;;20.00;12.95;;;;;;;;;;4895511;29;20058;-81
2023/06/30 02:47:25;;;;;;;20.30;13.13;;;;;;;;;;4893692;29;20048;-81
2023/06/30 02:49:51;;;;;;;18.15;13.02;;;;;;;;;;4894386;29;20040;-81
2023/06/30 02:52:16;;;;;;;19.08;13.07;;;;;;;;;;4893282;29;20074;-82
2023/06/30 02:54:41;;;;;;;19.88;13.57;;;;;;;;;;4879079;29;20063;-81
2023/06/30 02:57:07;;;;;;;19.40;13.68;;;;;;;;;;4893721;29;20047;-82
2023/06/30 02:59:32;;;;;;;20.25;13.75;;;;;;;;;;4885262;29;20052;-82
2023/06/30 03:01:59;;;;;;;21.92;14.05;;;;;;;;;;4894003;29;20039;-82
2023/06/30 03:04:24;;;;;;;22.05;14.80;;;;;;;;;;4880673;29;20444;-82
2023/06/30 03:06:50;;;;;;;21.55;14.68;;;;;;;;;;4886621;29;20044;-82
2023/06/30 03:09:15;;;;;;;20.83;14.25;;;;;;;;;;4893388;29;20036;-81
2023/06/30 03:11:41;;;;;;;22.10;14.30;;;;;;;;;;4877783;29;20451;-81
2023/06/30 03:14:06;;;;;;;23.23;14.52;;;;;;;;;;4895845;29;20036;-81
2023/06/30 03:16:31;;;;;;;20.95;14.80;;;;;;;;;;4908909;29;20044;-81
2023/06/30 03:18:59;;;;;;;23.02;14.80;;;;;;;;;;4893730;29;20074;-81
2023/06/30 03:21:25;;;;;;;21.92;15.15;;;;;;;;;;4876666;29;20051;-81
2023/06/30 03:23:50;;;;;;;21.63;14.63;;;;;;;;;;4878009;29;20617;-82
2023/06/30 03:26:16;;;;;;;23.63;14.65;;;;;;;;;;4892676;29;20615;-82
2023/06/30 03:28:41;;;;;;;23.83;15.10;;;;;;;;;;4876054;29;20477;-82
2023/06/30 03:31:09;;;;;;;21.88;15.77;;;;;;;;;;4885466;29;20036;-81
2023/06/30 03:33:35;;;;;;;21.83;15.40;;;;;;;;;;4878084;29;20461;-81
2023/06/30 03:36:00;;;;;;;23.23;14.75;;;;;;;;;;4891985;29;20036;-82
2023/06/30 03:38:26;;;;;;;21.98;14.65;;;;;;;;;;4876618;29;20032;-82
2023/06/30 03:40:51;;;;;;;20.70;14.73;;;;;;;;;;4877379;29;20033;-81
2023/06/30 03:43:21;;;;;;;22.25;15.52;;;;;;;;;;4893881;29;20036;-81
2023/06/30 03:45:46;;;;;;;21.48;15.10;;;;;;;;;;4896758;29;20546;-83
2023/06/30 03:48:11;;;;;;;21.20;15.13;;;;;;;;;;4884380;29;20076;-82
2023/06/30 03:50:37;;;;;;;19.55;13.38;;;;;;;;;;4908688;29;20035;-82
2023/06/30 03:53:02;;;;;;;22.98;15.60;;;;;;;;;;4893738;29;20040;-82
2023/06/30 03:55:28;;;;;;;20.73;14.65;;;;;;;;;;4899450;29;20111;-82
2023/06/30 03:57:53;;;;;;;21.02;14.77;;;;;;;;;;4907474;29;20047;-83
2023/06/30 04:00:20;;;;;;;20.45;14.95;;;;;;;;;;4886588;29;20067;-82
2023/06/30 04:02:45;;;;;;;21.25;14.30;;;;;;;;;;4892953;29;20040;-83
2023/06/30 04:05:11;;;;;;;20.55;13.65;;;;;;;;;;4893798;29;20047;-82
2023/06/30 04:07:37;;;;;;;21.98;14.52;;;;;;;;;;4892119;29;20477;-82
2023/06/30 04:10:03;;;;;;;20.85;14.38;;;;;;;;;;4892689;29;20036;-82
2023/06/30 04:12:28;;;;;;;21.35;14.55;;;;;;;;;;4881705;29;20051;-81
2023/06/30 04:14:54;;;;;;;20.48;14.38;;;;;;;;;;4892254;29;20051;-81
2023/06/30 04:17:19;;;;;;;21.05;14.77;;;;;;;;;;4892081;29;20040;-81
2023/06/30 04:19:45;;;;;;;21.55;15.32;;;;;;;;;;4892749;29;20096;-81
2023/06/30 04:22:10;;;;;;;20.67;13.73;;;;;;;;;;4894470;29;20044;-82
2023/06/30 04:24:36;;;;;;;20.63;13.68;;;;;;;;;;4896623;29;20056;-82
2023/06/30 04:27:01;;;;;;;22.67;14.88;;;;;;;;;;4895662;29;20563;-83
2023/06/30 04:29:27;;;;;;;20.73;14.57;;;;;;;;;;4896292;29;20040;-82
2023/06/30 04:31:53;;;;;;;20.27;13.95;;;;;;;;;;4886671;29;20040;-82
2023/06/30 04:34:18;;;;;;;19.90;13.50;;;;;;;;;;4880699;29;20036;-82
2023/06/30 04:36:43;;;;;;;19.48;13.13;;;;;;;;;;4886088;29;20044;-80
2023/06/30 04:39:09;;;;;;;20.20;14.20;;;;;;;;;;4896013;29;20098;-83
2023/06/30 04:41:34;;;;;;;19.55;13.90;;;;;;;;;;4895802;29;20096;-83
2023/06/30 04:44:00;;;;;;;18.25;12.70;;;;;;;;;;4896866;29;20400;-82
2023/06/30 04:46:26;;;;;;;19.10;13.10;;;;;;;;;;4905572;29;20040;-83
2023/06/30 04:49:04;;;;;;;18.52;12.52;;;;;;;;;;4891052;29;20116;-82
2023/06/30 04:51:38;;;;;;;19.23;13.07;;;;;;;;;;4876003;29;21428;-83
2023/06/30 04:54:04;;;;;;;19.52;13.20;;;;;;;;;;4885781;29;20496;-83
2023/06/30 04:56:50;;;;;;;19.08;12.90;;;;;;;;;;4861422;29;20040;-83
2023/06/30 04:59:18;;;;;;;21.05;12.98;;;;;;;;;;4893044;29;20040;-83
2023/06/30 05:01:46;;;;;;;19.15;13.20;;;;;;;;;;4893059;29;20048;-84
2023/06/30 05:04:14;;;;;;;18.85;13.25;;;;;;;;;;4896861;29;20435;-82
2023/06/30 05:06:39;;;;;;;17.80;11.90;;;;;;;;;;4886257;29;20425;-83
2023/06/30 05:09:04;;;;;;;15.80;11.82;;;;;;;;;;4887647;29;20076;-83
2023/06/30 05:11:30;;;;;;;17.27;11.90;;;;;;;;;;4895737;29;20040;-82
2023/06/30 05:13:56;;;;;;;19.17;12.63;;;;;;;;;;4880308;29;20412;-83
2023/06/30 05:16:21;;;;;;;17.52;11.85;;;;;;;;;;4895504;29;20110;-83
2023/06/30 05:19:07;;;;;;;18.45;12.52;;;;;;;;;;4896173;29;20044;-83
2023/06/30 05:21:32;;;;;;;18.50;12.68;;;;;;;;;;4825198;29;20046;-83
2023/06/30 05:23:57;;;;;;;15.20;11.27;;;;;;;;;;4819060;29;20077;-83
2023/06/30 05:26:23;;;;;;;17.95;11.48;;;;;;;;;;4829730;29;20050;-80
2023/06/30 05:28:48;;;;;;;16.58;11.57;;;;;;;;;;4831248;29;20602;-82
2023/06/30 05:31:34;;;;;;;17.15;11.70;;;;;;;;;;4816541;29;20190;-82
2023/06/30 05:34:00;;;;;;;16.60;11.35;;;;;;;;;;4809568;29;20491;-82
2023/06/30 05:36:25;;;;;;;14.02;10.45;;;;;;;;;;4796578;29;20056;-82
2023/06/30 05:38:50;;;;;;;15.68;11.60;;;;;;;;;;4801833;29;20042;-83
2023/06/30 05:41:16;;;;;;;18.00;12.32;;;;;;;;;;4830570;29;20030;-81
2023/06/30 05:43:41;;;;;;;16.63;11.23;;;;;;;;;;4810090;29;20048;-82
2023/06/30 05:46:07;;;;;;;15.40;11.40;;;;;;;;;;4815526;29;20046;-84
2023/06/30 05:48:32;;;;;;;16.05;10.50;;;;;;;;;;4816544;29;20137;-82
2023/06/30 05:50:58;;;;;;;15.38;10.18;;;;;;;;;;4812465;29;20042;-83
2023/06/30 05:53:23;;;;;;;13.30;10.00;;;;;;;;;;4814413;29;20041;-83
2023/06/30 05:55:55;;;;;;;14.88;10.18;;;;;;;;;;4834449;29;20089;-82
2023/06/30 05:58:21;;;;;;;16.48;10.88;;;;;;;;;;4837691;29;20044;-83
2023/06/30 06:00:46;;;;;;;16.27;10.50;;;;;;;;;;4895374;29;20436;-83
2023/06/30 06:03:14;;;;;;;16.65;10.50;;;;;;;;;;4885847;29;20051;-83
2023/06/30 06:05:40;;;;;;;14.93;10.68;;;;;;;;;;4878374;29;20095;-83
2023/06/30 06:08:05;;;;;;;19.30;11.35;;;;;;;;;;4910244;29;20048;-83
2023/06/30 06:10:31;;;;;;;14.35;10.02;;;;;;;;;;4867737;29;20040;-82
2023/06/30 06:12:56;;;;;;;15.50;10.50;;;;;;;;;;4871353;29;20124;-82
2023/06/30 06:15:22;;;;;;;14.57;10.45;;;;;;;;;;4895989;29;20032;-81
2023/06/30 06:17:47;;;;;;;14.85;10.27;;;;;;;;;;4915104;29;20086;-82
2023/06/30 06:20:12;;;;;;;16.92;10.40;;;;;;;;;;4892365;29;20032;-82
2023/06/30 06:22:38;;;;;;;14.57;9.90;;;;;;;;;;4894284;29;20044;-81
2023/06/30 06:25:04;;;;;;;16.65;10.82;;;;;;;;;;4911630;29;20047;-81
2023/06/30 06:27:33;;;;;;;16.25;10.13;;;;;;;;;;4893858;29;20050;-82
2023/06/30 06:29:58;;;;;;;17.52;10.32;;;;;;;;;;4878959;29;20421;-82
2023/06/30 06:32:23;;;;;;;13.15;10.02;;;;;;;;;;4894579;29;20040;-82
2023/06/30 06:34:52;;;;;;;15.10;10.20;;;;;;;;;;4894485;29;20560;-82
2023/06/30 06:37:17;;;;;;;14.75;9.85;;;;;;;;;;4893676;29;20068;-82
2023/06/30 06:39:43;;;;;;;15.88;10.70;;;;;;;;;;4909533;29;20456;-82
2023/06/30 06:42:08;;;;;;;14.18;9.95;;;;;;;;;;4885090;29;20040;-82
2023/06/30 06:44:34;;;;;;;14.75;10.18;;;;;;;;;;4859274;29;20036;-83
2023/06/30 06:47:36;;;;;;;14.32;9.93;;;;;;;;;;4910304;29;20032;-83
2023/06/30 06:50:03;;;;;;;14.73;10.02;;;;;;;;;;4902581;29;20563;-82
2023/06/30 06:52:28;;;;;;;15.55;10.38;;;;;;;;;;4893435;29;20072;-81
2023/06/30 06:54:54;;;;;;;14.85;10.30;;;;;;;;;;4898732;29;20114;-82
2023/06/30 06:57:19;;;;;;;15.38;9.80;;;;;;;;;;4881684;29;20056;-81
2023/06/30 06:59:48;;;;;;;14.45;9.82;;;;;;;;;;4881518;29;20037;-82
2023/06/30 07:02:33;;;;;;;13.40;9.63;;;;;;;;;;4877120;29;20039;-81
2023/06/30 07:04:59;;;;;;;15.15;9.77;;;;;;;;;;4852820;29;20071;-81
2023/06/30 07:07:24;;;;;;;15.98;9.63;;;;;;;;;;4824995;29;20073;-81
2023/06/30 07:09:49;;;;;;;14.15;9.90;;;;;;;;;;4817744;29;20084;-81
2023/06/30 07:12:15;;;;;;;15.18;10.05;;;;;;;;;;4844196;29;20063;-81
2023/06/30 07:14:40;;;;;;;14.13;9.75;;;;;;;;;;4827667;29;20040;-81
2023/06/30 07:17:06;;;;;;;13.90;9.80;;;;;;;;;;4816500;29;20142;-81
2023/06/30 07:19:31;;;;;;;14.48;9.82;;;;;;;;;;4834150;29;20042;-81
2023/06/30 07:21:57;;;;;;;15.30;9.93;;;;;;;;;;4849073;29;20531;-81
2023/06/30 07:24:22;;;;;;;14.98;9.98;;;;;;;;;;4814156;29;20169;-80
2023/06/30 07:26:47;;;;;;;15.00;9.55;;;;;;;;;;4838177;29;20043;-80
2023/06/30 07:29:13;;;;;;;17.45;10.55;;;;;;;;;;4827773;29;20180;-80
2023/06/30 07:31:38;;;;;;;15.40;9.85;;;;;;;;;;4840370;29;20554;-82
2023/06/30 07:34:03;;;;;;;15.10;9.80;;;;;;;;;;4837522;29;20045;-80
2023/06/30 07:36:32;;;;;;;15.23;10.30;;;;;;;;;;4851583;29;20081;-80
2023/06/30 07:38:57;;;;;;;14.60;10.02;;;;;;;;;;4836387;29;20045;-81
2023/06/30 07:41:23;;;;;;;14.30;9.80;;;;;;;;;;4828806;29;20036;-81
2023/06/30 07:43:48;;;;;;;14.52;9.45;;;;;;;;;;4892942;29;20050;-81
2023/06/30 07:46:14;;;;;;;15.13;9.98;;;;;;;;;;4908690;29;20052;-82
2023/06/30 07:48:39;;;;;;;14.02;9.15;;;;;;;;;;4893479;29;20088;-81
2023/06/30 07:51:05;;;;;;;15.63;9.75;;;;;;;;;;4876656;29;20522;-82
2023/06/30 07:53:30;;;;;;;14.65;9.63;;;;;;;;;;4869752;29;20370;-81
2023/06/30 07:55:55;;;;;;;14.50;10.07;;;;;;;;;;4888863;29;20200;-81
2023/06/30 07:58:22;;;;;;;15.20;9.68;;;;;;;;;;4874546;29;20056;-82
2023/06/30 08:00:50;;;;;;;16.17;10.80;;;;;;;;;;4873247;29;20066;-80
2023/06/30 08:03:21;;;;;;;15.57;9.90;;;;;;;;;;4879001;29;20052;-80
2023/06/30 08:05:47;;;;;;;17.95;10.30;;;;;;;;;;4872916;29;20448;-81
2023/06/30 08:08:21;;;;;;;15.10;10.13;;;;;;;;;;4867555;29;20048;-81
2023/06/30 08:10:46;;;;;;;15.15;9.73;;;;;;;;;;4886583;29;20075;-82
2023/06/30 08:13:12;;;;;;;14.93;9.52;;;;;;;;;;4906685;29;20465;-83
2023/06/30 08:15:39;;;;;;;14.10;10.02;;;;;;;;;;4872477;29;20040;-81
2023/06/30 08:18:05;;;;;;;14.20;10.20;;;;;;;;;;4866185;29;20067;-81
2023/06/30 08:20:31;;;;;;;14.30;9.90;;;;;;;;;;4878631;29;20401;-81
2023/06/30 08:22:56;;;;;;;15.75;9.13;;;;;;;;;;4904631;29;20041;-81
2023/06/30 08:25:23;;;;;;;16.20;10.05;;;;;;;;;;4889302;29;20041;-81
2023/06/30 08:27:51;;;;;;;16.80;9.60;;;;;;;;;;4873887;29;20048;-82
2023/06/30 08:30:17;;;;;;;13.35;9.85;;;;;;;;;;4880278;29;20500;-80
2023/06/30 08:32:43;;;;;;;14.40;9.73;;;;;;;;;;4904559;29;20060;-81
2023/06/30 08:35:08;;;;;;;14.75;9.75;;;;;;;;;;4885403;29;20137;-80
2023/06/30 08:37:34;;;;;;;14.95;10.07;;;;;;;;;;4890386;29;20491;-81
2023/06/30 08:40:00;;;;;;;15.23;9.88;;;;;;;;;;4888852;29;20079;-82
2023/06/30 08:42:30;;;;;;;16.58;10.10;;;;;;;;;;4873356;29;20152;-81
2023/06/30 08:44:57;;;;;;;16.63;10.38;;;;;;;;;;4904326;29;22365;-81
2023/06/30 08:47:25;;;;;;;15.67;9.83;;;;;;;;;;4853370;29;20520;-81
2023/06/30 08:49:52;;;;;;;16.80;10.27;;;;;;;;;;4889898;29;20041;-82
2023/06/30 08:52:22;;;;;;;15.55;10.05;;;;;;;;;;4905124;29;20037;-81
2023/06/30 08:54:47;;;;;;;14.13;9.52;;;;;;;;;;4889697;29;20438;-81
2023/06/30 08:57:18;;;;;;;15.27;10.02;;;;;;;;;;4894853;29;20050;-81
2023/06/30 08:59:43;;;;;;;15.75;10.52;;;;;;;;;;4879401;29;20049;-81
2023/06/30 09:02:11;;;;;;;14.93;10.02;;;;;;;;;;4877439;29;20564;-82
2023/06/30 09:04:40;;;;;;;16.30;10.25;;;;;;;;;;4890019;29;20044;-82
2023/06/30 09:07:07;;;;;;;17.27;10.95;;;;;;;;;;4890142;29;20040;-81
2023/06/30 09:09:42;;;;;;;17.60;11.15;;;;;;;;;;4893532;29;20049;-81
2023/06/30 09:12:08;;;;;;;14.90;10.48;;;;;;;;;;4875423;29;20036;-81
2023/06/30 09:14:34;;;;;;;18.17;11.77;;;;;;;;;;4871375;29;20441;-80
2023/06/30 09:20:09;;;;;;;16.13;11.13;;;;;;;;;;4858157;29;20548;-82
2023/06/30 09:22:42;;;;;;;20.90;13.00;;;;;;;;;;4892059;29;20416;-81
2023/06/30 09:25:28;;;;;;;18.17;12.27;;;;;;;;;;4876031;29;20033;-81
2023/06/30 09:27:58;;;;;;;17.67;12.85;;;;;;;;;;4897237;29;20119;-82
2023/06/30 09:30:34;;;;;;;21.88;14.05;;;;;;;;;;4909097;29;20047;-82
2023/06/30 09:32:59;;;;;;;22.50;14.23;;;;;;;;;;4876060;29;20434;-81
2023/06/30 09:35:25;;;;;;;22.98;14.10;;;;;;;;;;4869257;29;20054;-81
2023/06/30 09:37:50;;;;;;;19.17;13.35;;;;;;;;;;4876703;29;20143;-81
2023/06/30 09:40:17;;;;;;;22.95;14.13;;;;;;;;;;4891063;29;20052;-81
2023/06/30 09:42:44;;;;;;;24.45;16.15;;;;;;;;;;4891106;29;20048;-81
2023/06/30 09:45:10;;;;;;;22.05;15.18;;;;;;;;;;4891867;29;20028;-80
2023/06/30 09:47:36;;;;;;;21.37;15.77;;;;;;;;;;4892833;29;20527;-81
2023/06/30 09:50:02;;;;;;;20.70;14.15;;;;;;;;;;4893283;29;20044;-80
2023/06/30 09:52:30;;;;;;;23.40;15.88;;;;;;;;;;4881138;29;20041;-82
2023/06/30 09:54:56;;;;;;;22.58;14.65;;;;;;;;;;4892466;29;20043;-81
2023/06/30 09:57:28;;;;;;;25.15;16.33;;;;;;;;;;4890339;29;20041;-80
2023/06/30 09:59:53;;;;;;;21.25;14.82;;;;;;;;;;4867302;29;20452;-82
2023/06/30 10:02:19;;;;;;;19.20;14.52;;;;;;;;;;4880927;29;20099;-80
2023/06/30 10:04:53;;;;;;;21.00;13.70;;;;;;;;;;4858589;29;20504;-80
2023/06/30 10:07:19;;;;;;;20.45;14.48;;;;;;;;;;4897839;29;20100;-81
2023/06/30 10:09:45;;;;;;;19.42;13.52;;;;;;;;;;4890997;29;20044;-81
2023/06/30 10:12:15;;;;;;;21.48;14.20;;;;;;;;;;4890197;29;20043;-81
2023/06/30 10:14:41;;;;;;;22.02;15.07;;;;;;;;;;4876345;29;20040;-80
2023/06/30 10:17:08;;;;;;;22.30;15.50;;;;;;;;;;4874261;29;20040;-81
2023/06/30 10:19:35;;;;;;;24.27;15.40;;;;;;;;;;4877680;29;20044;-80
2023/06/30 10:22:00;;;;;;;22.10;15.73;;;;;;;;;;4874437;29;20503;-80
2023/06/30 10:24:27;;;;;;;22.13;15.48;;;;;;;;;;4892065;29;20084;-80
2023/06/30 10:26:58;;;;;;;25.43;16.53;;;;;;;;;;4889167;29;20401;-81
2023/06/30 10:29:23;;;;;;;24.90;16.05;;;;;;;;;;4892486;29;20036;-80
2023/06/30 10:31:49;;;;;;;25.02;17.00;;;;;;;;;;4890162;29;20033;-81
2023/06/30 10:34:14;;;;;;;23.88;16.23;;;;;;;;;;4875154;29;20093;-81
2023/06/30 10:36:45;;;;;;;23.90;16.38;;;;;;;;;;4891552;29;20524;-81
2023/06/30 10:39:11;;;;;;;22.75;15.98;;;;;;;;;;4890825;29;20388;-82
2023/06/30 10:41:55;;;;;;;23.48;15.98;;;;;;;;;;4889844;29;20044;-82
2023/06/30 10:44:22;;;;;;;23.15;14.95;;;;;;;;;;4891043;29;20128;-81
2023/06/30 10:46:48;;;;;;;23.98;14.82;;;;;;;;;;4889318;29;20044;-81
2023/06/30 10:49:22;;;;;;;22.27;14.00;;;;;;;;;;4891299;29;20060;-81
2023/06/30 10:51:49;;;;;;;19.98;13.63;;;;;;;;;;4905935;29;20971;-82
2023/06/30 10:54:53;;;;;;;19.15;13.32;;;;;;;;;;4891982;29;20400;-80
2023/06/30 10:57:20;;;;;;;17.88;12.55;;;;;;;;;;4876147;29;20145;-79
2023/06/30 10:59:47;;;;;;;20.95;13.48;;;;;;;;;;4874484;29;20045;-79
2023/06/30 11:02:18;;;;;;;20.63;13.32;;;;;;;;;;4872420;29;20408;-80
2023/06/30 11:04:47;;;;;;;21.27;14.40;;;;;;;;;;4884305;29;20123;-80
2023/06/30 11:07:28;;;;;;;22.48;15.02;;;;;;;;;;4873870;29;20036;-79
2023/06/30 11:09:53;;;;;;;21.90;14.55;;;;;;;;;;4877654;29;20049;-80
2023/06/30 11:12:25;;;;;;;22.83;15.02;;;;;;;;;;4890719;29;20142;-80
2023/06/30 11:14:58;;;;;;;20.17;14.43;;;;;;;;;;4877536;29;20378;-80
2023/06/30 11:17:25;;;;;;;22.15;14.20;;;;;;;;;;4874113;29;20052;-80
2023/06/30 11:20:00;;;;;;;22.17;14.80;;;;;;;;;;4875907;29;20099;-81
2023/06/30 11:22:32;;;;;;;22.88;14.57;;;;;;;;;;4903926;29;20029;-79
2023/06/30 11:24:57;;;;;;;22.88;15.60;;;;;;;;;;4865390;29;20040;-80
2023/06/30 11:27:28;;;;;;;21.83;14.07;;;;;;;;;;4897283;29;20111;-80
2023/06/30 11:29:54;;;;;;;18.75;13.63;;;;;;;;;;4889729;29;20076;-80
2023/06/30 11:32:27;;;;;;;21.63;14.07;;;;;;;;;;4872730;29;20521;-82
2023/06/30 11:34:52;;;;;;;22.63;14.30;;;;;;;;;;4878437;29;20074;-80
2023/06/30 11:37:18;;;;;;;20.38;13.73;;;;;;;;;;4904580;29;20123;-81
2023/06/30 11:39:58;;;;;;;21.10;14.25;;;;;;;;;;4890485;29;20046;-81
2023/06/30 11:42:25;;;;;;;20.73;13.70;;;;;;;;;;4871328;29;20156;-81
2023/06/30 11:44:53;;;;;;;22.85;15.05;;;;;;;;;;4873557;29;20116;-82
2023/06/30 11:47:19;;;;;;;22.88;15.30;;;;;;;;;;4880714;29;20102;-80
2023/06/30 11:49:46;;;;;;;22.45;15.40;;;;;;;;;;4905413;29;20130;-80
2023/06/30 11:52:11;;;;;;;26.27;17.05;;;;;;;;;;4871142;29;20519;-81
2023/06/30 11:54:37;;;;;;;23.55;15.63;;;;;;;;;;4889135;29;20048;-80
2023/06/30 11:57:03;;;;;;;24.23;16.33;;;;;;;;;;4880420;29;20104;-78
2023/06/30 11:59:35;;;;;;;24.00;15.52;;;;;;;;;;4862860;29;20953;-81
2023/06/30 12:02:00;;;;;;;24.75;15.98;;;;;;;;;;4888756;29;20048;-80
2023/06/30 12:04:33;;;;;;;26.00;16.45;;;;;;;;;;4889404;29;21496;-79
2023/06/30 12:07:00;;;;;;;22.83;15.75;;;;;;;;;;4872844;29;20037;-80
2023/06/30 12:09:25;;;;;;;23.35;15.18;;;;;;;;;;4881956;29;20080;-81
2023/06/30 12:11:51;;;;;;;15.95;11.35;;;;;;;;;;4888517;29;20899;-81
2023/06/30 12:14:18;;;;;;;10.95;7.90;;;;;;;;;;4873007;29;20037;-80
2023/06/30 12:16:48;;;;;;;11.63;7.28;;;;;;;;;;4894524;29;20040;-81
2023/06/30 12:19:26;;;;;;;10.45;5.93;;;;;;;;;;4896445;29;20045;-82
2023/06/30 12:21:52;;;;;;;10.05;6.85;;;;;;;;;;4887253;29;20037;-81
2023/06/30 12:24:21;;;;;;;9.93;6.30;;;;;;;;;;4892794;29;20044;-80
2023/06/30 12:26:50;;;;;;;8.50;5.65;;;;;;;;;;4887858;29;20041;-80
2023/06/30 12:29:17;;;;;;;8.15;5.40;;;;;;;;;;4874838;29;20131;-80
2023/06/30 12:31:42;;;;;;;8.65;5.60;;;;;;;;;;4881933;29;20037;-79
2023/06/30 12:34:08;;;;;;;8.73;5.22;;;;;;;;;;4873962;29;20107;-79
2023/06/30 12:36:33;;;;;;;6.68;4.25;;;;;;;;;;4873325;29;20044;-78
2023/06/30 12:38:59;;;;;;;7.10;4.93;;;;;;;;;;4905283;29;20037;-78
2023/06/30 12:41:24;;;;;;;7.88;5.13;;;;;;;;;;4880405;29;20059;-79
2023/06/30 12:43:50;;;;;;;8.40;4.65;;;;;;;;;;4867454;29;20048;-79
2023/06/30 12:46:18;;;;;;;7.40;4.82;;;;;;;;;;4897519;29;20047;-79
2023/06/30 12:48:45;;;;;;;8.48;5.15;;;;;;;;;;4908504;29;20056;-79
2023/06/30 12:51:10;;;;;;;8.48;4.85;;;;;;;;;;4891599;29;20083;-80
2023/06/30 12:53:38;;;;;;;8.50;4.95;;;;;;;;;;4909798;29;20558;-79
2023/06/30 12:56:04;;;;;;;6.53;4.45;;;;;;;;;;4882104;29;20501;-79
2023/06/30 12:58:29;;;;;;;6.60;4.30;;;;;;;;;;4892684;29;20050;-79
2023/06/30 13:00:59;;;;;;;7.28;4.57;;;;;;;;;;4892448;29;20064;-79
2023/06/30 13:03:25;;;;;;;8.55;4.80;;;;;;;;;;4893403;29;20809;-79
2023/06/30 13:05:51;;;;;;;7.57;5.07;;;;;;;;;;4892176;29;20040;-78
2023/06/30 13:08:16;;;;;;;8.32;4.72;;;;;;;;;;4892716;29;20037;-78
2023/06/30 13:10:42;;;;;;;6.28;4.20;;;;;;;;;;4892119;29;20040;-78
2023/06/30 13:13:07;;;;;;;8.35;4.97;;;;;;;;;;4908620;29;20035;-77
2023/06/30 13:15:32;;;;;;;7.97;5.00;;;;;;;;;;4891939;29;20132;-78
2023/06/30 13:17:58;;;;;;;8.13;5.20;;;;;;;;;;4875752;29;20040;-78
2023/06/30 13:20:23;;;;;;;9.20;5.72;;;;;;;;;;4908279;29;20599;-78
2023/06/30 13:22:48;;;;;;;8.40;5.35;;;;;;;;;;4893767;29;20052;-79
2023/06/30 13:25:16;;;;;;;8.05;5.43;;;;;;;;;;4875203;29;20404;-79
2023/06/30 13:27:42;;;;;;;10.55;5.65;;;;;;;;;;4882295;29;20037;-78
2023/06/30 13:30:08;;;;;;;8.45;5.18;;;;;;;;;;4893968;29;20369;-79
2023/06/30 13:32:39;;;;;;;9.43;5.57;;;;;;;;;;4892430;29;20103;-79
2023/06/30 13:35:05;;;;;;;8.90;5.45;;;;;;;;;;4907205;29;20040;-78
2023/06/30 13:37:30;;;;;;;8.02;5.18;;;;;;;;;;4890482;29;20044;-79
2023/06/30 13:40:03;;;;;;;8.95;5.30;;;;;;;;;;4893087;29;20177;-78
2023/06/30 13:42:30;;;;;;;7.35;4.90;;;;;;;;;;4876878;29;20074;-79
2023/06/30 13:44:55;;;;;;;6.90;5.05;;;;;;;;;;4885071;29;20040;-79
2023/06/30 13:47:21;;;;;;;8.15;5.28;;;;;;;;;;4877657;29;20040;-80
2023/06/30 13:49:46;;;;;;;8.05;5.18;;;;;;;;;;4895918;29;20505;-80
2023/06/30 13:52:11;;;;;;;8.55;5.28;;;;;;;;;;4901154;29;20107;-80
2023/06/30 13:54:40;;;;;;;8.40;5.18;;;;;;;;;;4894783;29;20377;-80
2023/06/30 13:57:07;;;;;;;8.13;5.15;;;;;;;;;;4878977;29;20119;-78
2023/06/30 13:59:32;;;;;;;7.28;4.80;;;;;;;;;;4896154;29;20275;-79
2023/06/30 14:01:58;;;;;;;7.00;4.68;;;;;;;;;;4902518;29;20119;-79
2023/06/30 14:04:23;;;;;;;7.43;4.32;;;;;;;;;;4894963;29;20032;-78
2023/06/30 14:06:49;;;;;;;8.85;4.32;;;;;;;;;;4882222;29;20043;-79
2023/06/30 14:09:14;;;;;;;8.30;3.83;;;;;;;;;;4879840;29;20035;-79
2023/06/30 14:11:40;;;;;;;6.57;3.75;;;;;;;;;;4894464;29;20067;-79
2023/06/30 14:14:08;;;;;;;6.22;3.42;;;;;;;;;;4897349;29;20095;-80
2023/06/30 14:16:37;;;;;;;7.22;3.55;;;;;;;;;;4878486;29;20436;-87
2023/06/30 14:19:03;;;;;;;6.40;4.00;;;;;;;;;;4911756;29;20880;-80
2023/06/30 14:21:29;;;;;;;6.43;3.63;;;;;;;;;;4909004;29;20401;-79
2023/06/30 14:23:55;;;;;;;8.15;3.67;;;;;;;;;;4895519;29;20036;-78
2023/06/30 14:26:22;;;;;;;6.53;3.78;;;;;;;;;;4893300;29;20175;-79